Time;durP1;ratioP1;P1;durP2;ratioP2;P2;SDS_P1;SDS_P2;PMS_P1;PMS_P2;Temp;Humidity;BMP_temperature;BMP_pressure;BME280_temperature;BME280_humidity;BME280_pressure;Samples;Min_cycle;Max_cycle;Signal;HPM_P1;HPM_P2
2021/06/03 00:02:07;;;;;;;;;;;;;;;;;;;;;
2021/06/03 00:04:46;;;;;;;11.48;6.68;;;;;;;13.88;67.97;93222.72;4995532;28;20066;-93
2021/06/03 00:07:24;;;;;;;11.70;7.07;;;;;;;13.80;68.65;93221.50;4983264;28;20045;-93
2021/06/03 00:09:57;;;;;;;10.43;6.85;;;;;;;13.84;68.65;93232.25;5015399;28;20095;-92
2021/06/03 00:12:37;;;;;;;9.60;6.88;;;;;;;13.79;67.96;93230.47;5008269;28;20066;-93
2021/06/03 00:15:15;;;;;;;9.50;6.68;;;;;;;13.76;68.09;93233.69;4996663;28;20038;-93
2021/06/03 00:18:03;;;;;;;10.00;7.07;;;;;;;13.66;68.30;93226.72;4995932;28;20038;-93
2021/06/03 00:21:02;;;;;;;13.15;6.93;;;;;;;13.64;68.41;93230.72;5011985;28;20077;-92
2021/06/03 00:23:28;;;;;;;11.15;6.75;;;;;;;13.52;68.41;93212.75;4996086;28;20053;-94
2021/06/03 00:26:16;;;;;;;9.45;6.88;;;;;;;13.46;68.49;93209.38;4996396;28;20495;-93
2021/06/03 00:28:53;;;;;;;10.57;6.88;;;;;;;13.42;68.49;93216.31;4996290;28;20455;-93
2021/06/03 00:31:52;;;;;;;11.05;6.60;;;;;;;13.48;68.48;93241.44;4996542;28;20041;-93
2021/06/03 00:34:28;;;;;;;10.40;6.53;;;;;;;13.36;68.53;93227.19;4977506;28;20047;-93
2021/06/03 00:37:03;;;;;;;;;;;;;;;;;;;;;
2021/06/03 00:39:43;;;;;;;9.38;6.57;;;;;;;13.27;68.65;93227.78;5011226;28;20400;-92
2021/06/03 00:42:28;;;;;;;;;;;;;;;;;;;;;
2021/06/03 00:45:16;;;;;;;10.32;7.05;;;;;;;13.14;69.06;93233.75;4990233;28;20033;-93
2021/06/03 00:48:13;;;;;;;11.18;6.90;;;;;;;13.20;69.22;93250.25;4997299;28;20038;-93
2021/06/03 00:50:56;;;;;;;9.85;6.78;;;;;;;13.03;69.21;93240.19;4980018;28;20057;-92
2021/06/03 00:53:53;;;;;;;9.32;6.90;;;;;;;13.03;69.27;93240.97;4979193;28;20046;-93
2021/06/03 00:56:35;;;;;;;9.90;7.07;;;;;;;13.04;69.24;93247.81;5009888;28;20411;-93
2021/06/03 00:59:51;;;;;;;10.00;6.35;;;;;;;13.04;69.33;93252.28;4996152;28;20197;-92
2021/06/03 01:02:37;;;;;;;9.00;6.07;;;;;;;12.95;69.99;93249.50;5008941;28;20046;-93
2021/06/03 01:05:45;;;;;;;10.25;6.45;;;;;;;12.92;69.93;93257.94;5005845;28;20149;-93
2021/06/03 01:08:55;;;;;;;10.10;5.85;;;;;;;12.78;69.81;93242.06;5009128;28;20035;-94
2021/06/03 01:11:40;;;;;;;8.32;6.53;;;;;;;12.81;69.84;93259.91;4995898;28;20050;-93
2021/06/03 01:14:50;;;;;;;7.88;5.95;;;;;;;12.69;70.17;93246.38;4992038;28;20053;-93
2021/06/03 01:17:23;;;;;;;10.00;6.38;;;;;;;12.68;70.25;93248.22;5012024;28;20429;-92
2021/06/03 01:19:51;;;;;;;9.60;6.65;;;;;;;12.66;70.56;93255.59;5016518;28;20039;-93
2021/06/03 01:23:00;;;;;;;10.27;6.30;;;;;;;12.67;70.54;93259.78;5000087;28;20054;-92
2021/06/03 01:25:55;;;;;;;8.60;6.05;;;;;;;12.68;70.50;93258.75;4992008;28;20026;-93
2021/06/03 01:28:47;;;;;;;9.95;6.40;;;;;;;12.66;70.42;93260.88;5002526;28;20042;-92
2021/06/03 01:31:32;;;;;;;8.85;6.05;;;;;;;12.78;70.60;93276.22;4991218;28;20038;-93
2021/06/03 01:34:31;;;;;;;8.55;6.22;;;;;;;12.70;70.46;93259.25;5008109;28;20042;-92
2021/06/03 01:37:07;;;;;;;10.70;6.50;;;;;;;12.72;70.28;93264.19;4982334;28;20073;-93
2021/06/03 01:40:04;;;;;;;9.82;6.70;;;;;;;12.69;70.49;93255.03;5017319;28;20541;-92
2021/06/03 01:46:03;;;;;;;9.02;6.45;;;;;;;12.70;71.00;93263.72;4998016;28;20062;-92
2021/06/03 01:48:38;;;;;;;9.90;6.20;;;;;;;12.72;70.97;93258.94;5011005;28;20496;-92
2021/06/03 01:51:31;;;;;;;;;;;;;;;;;;;;;
2021/06/03 01:54:19;;;;;;;;;;;;;;;;;;;;;
2021/06/03 01:57:02;;;;;;;;;;;;;;;;;;;;;
2021/06/03 01:59:47;;;;;;;9.77;6.57;;;;;;;12.81;70.83;93259.13;5008395;28;20042;-92
2021/06/03 02:02:42;;;;;;;10.40;6.80;;;;;;;12.80;70.99;93255.72;5009866;28;20034;-93
2021/06/03 02:05:41;;;;;;;;;;;;;;;;;;;;;
2021/06/03 02:08:12;;;;;;;9.52;6.38;;;;;;;12.82;70.53;93252.81;5015708;28;20491;-93
2021/06/03 02:11:29;;;;;;;8.63;5.90;;;;;;;12.84;70.76;93261.19;4989747;28;20053;-91
2021/06/03 02:14:10;;;;;;;;;;;;;;;;;;;;;
2021/06/03 02:17:23;;;;;;;14.80;6.43;;;;;;;12.91;70.76;93265.03;5002853;28;20518;-93
2021/06/03 02:20:55;;;;;;;10.55;6.40;;;;;;;12.94;70.80;93261.06;4975224;28;20046;-93
2021/06/03 02:23:45;;;;;;;9.63;6.50;;;;;;;13.04;70.47;93268.84;4984457;28;20041;-93
2021/06/03 02:26:37;;;;;;;15.52;6.35;;;;;;;12.94;70.57;93247.94;4992000;28;20043;-93
2021/06/03 02:29:33;;;;;;;9.15;6.25;;;;;;;13.03;70.49;93258.59;4974219;28;20043;-93
2021/06/03 02:32:42;;;;;;;8.77;6.43;;;;;;;13.09;70.42;93266.13;4996370;28;20069;-93
2021/06/03 02:35:22;;;;;;;;;;;;;;;;;;;;;
2021/06/03 02:38:42;;;;;;;9.93;6.18;;;;;;;13.02;70.33;93244.69;4994468;28;20050;-93
2021/06/03 02:41:25;;;;;;;10.88;6.72;;;;;;;13.02;70.02;93242.06;4978009;28;20034;-93
2021/06/03 02:44:03;;;;;;;9.48;6.82;;;;;;;13.04;70.14;93253.06;4979487;28;20472;-93
2021/06/03 02:46:50;;;;;;;8.65;6.18;;;;;;;13.05;69.83;93246.72;5013614;28;20518;-94
2021/06/03 02:49:33;;;;;;;;;;;;;;;;;;;;;
2021/06/03 02:52:56;;;;;;;9.57;6.50;;;;;;;13.19;70.13;93259.97;4992382;28;20034;-92
2021/06/03 02:55:49;;;;;;;9.98;6.72;;;;;;;13.09;70.19;93245.13;4973719;28;20374;-94
2021/06/03 02:58:41;;;;;;;9.77;6.22;;;;;;;13.12;70.27;93243.75;4990423;28;20046;-92
2021/06/03 03:01:39;;;;;;;9.80;6.03;;;;;;;13.24;69.96;93261.75;4990273;28;20045;-93
2021/06/03 03:04:19;;;;;;;9.05;5.97;;;;;;;13.13;69.86;93246.13;4992028;28;20055;-92
2021/06/03 03:07:01;;;;;;;;;;;;;;;;;;;;;
2021/06/03 03:09:55;;;;;;;;;;;;;;;;;;;;;
2021/06/03 03:12:35;;;;;;;11.45;6.07;;;;;;;13.21;69.98;93255.19;4992834;28;20061;-92
2021/06/03 03:15:22;;;;;;;9.52;6.32;;;;;;;13.20;69.79;93255.50;4993316;28;20042;-93
2021/06/03 03:18:27;;;;;;;;;;;;;;;;;;;;;
2021/06/03 03:20:59;;;;;;;10.30;6.03;;;;;;;13.16;69.54;93246.63;4990878;28;20065;-92
2021/06/03 03:23:49;;;;;;;9.95;6.55;;;;;;;13.20;69.77;93251.03;4993562;28;20042;-93
2021/06/03 03:26:55;;;;;;;;;;;;;;;;;;;;;
2021/06/03 03:30:00;;;;;;;11.18;6.55;;;;;;;13.22;70.25;93263.91;4993978;28;20089;-93
2021/06/03 03:32:43;;;;;;;9.52;6.07;;;;;;;13.16;69.90;93254.50;4977543;28;20050;-92
2021/06/03 03:35:30;;;;;;;9.68;6.50;;;;;;;13.17;69.74;93261.31;4992991;28;20057;-92
2021/06/03 03:38:17;;;;;;;9.63;6.00;;;;;;;13.19;69.47;93261.81;5007962;28;20465;-93
2021/06/03 03:41:23;;;;;;;;;;;;;;;;;;;;;
2021/06/03 03:44:13;;;;;;;11.00;6.63;;;;;;;13.19;69.12;93259.19;4993972;28;20037;-93
2021/06/03 03:46:52;;;;;;;10.15;7.00;;;;;;;13.18;68.81;93257.63;5009115;28;20480;-92
2021/06/03 03:49:48;;;;;;;;;;;;;;;;;;;;;
2021/06/03 03:52:48;;;;;;;8.57;7.07;;;;;;;13.22;69.30;93261.28;4994352;28;20037;-92
2021/06/03 03:55:34;;;;;;;10.10;7.28;;;;;;;13.21;69.39;93262.31;4991716;28;20038;-92
2021/06/03 03:58:25;;;;;;;9.63;6.18;;;;;;;13.31;69.21;93280.63;5018814;28;20512;-93
2021/06/03 04:01:00;;;;;;;8.23;6.40;;;;;;;13.30;69.57;93274.56;5017977;28;20038;-92
2021/06/03 04:04:01;;;;;;;;;;;;;;;;;;;;;
2021/06/03 04:07:26;;;;;;;;;;;;;;;;;;;;;
2021/06/03 04:10:25;;;;;;;;;;;;;;;;;;;;;
2021/06/03 04:13:41;;;;;;;9.13;6.25;;;;;;;13.24;69.96;93270.44;4993773;28;20044;-93
2021/06/03 04:16:17;;;;;;;8.63;6.40;;;;;;;13.40;70.08;93297.34;5005128;28;20084;-93
2021/06/03 04:22:52;;;;;;;11.13;7.32;;;;;;;13.31;69.90;93283.25;4972508;28;20050;-93
2021/06/03 04:25:31;;;;;;;12.68;7.85;;;;;;;13.43;70.56;93290.72;5022938;28;20030;-92
2021/06/03 04:28:05;;;;;;;10.00;7.60;;;;;;;13.52;70.06;93305.56;5006701;28;20039;-93
2021/06/03 04:30:54;;;;;;;12.27;7.25;;;;;;;13.51;69.75;93304.03;4976878;28;20047;-94
2021/06/03 04:33:33;;;;;;;13.50;7.68;;;;;;;13.47;69.98;93292.50;4992212;28;20038;-93
2021/06/03 04:36:12;;;;;;;11.10;6.88;;;;;;;13.51;70.04;93293.50;5007402;28;20050;-93
2021/06/03 04:38:50;;;;;;;12.02;7.53;;;;;;;13.68;70.14;93310.63;5009398;28;20046;-91
2021/06/03 04:41:19;;;;;;;9.48;6.57;;;;;;;13.67;70.46;93309.09;4977464;28;20051;-93
2021/06/03 04:44:28;;;;;;;8.73;6.43;;;;;;;13.73;70.47;93310.56;4984228;28;20034;-93
2021/06/03 04:47:13;;;;;;;;;;;;;;;;;;;;;
2021/06/03 04:50:10;;;;;;;11.38;6.28;;;;;;;13.85;70.36;93308.28;4994874;28;20043;-94
2021/06/03 04:53:17;;;;;;;;;;;;;;;;;;;;;
2021/06/03 04:56:26;;;;;;;14.80;6.20;;;;;;;14.04;69.91;93315.38;5020217;28;20051;-92
2021/06/03 05:02:14;;;;;;;8.75;6.38;;;;;;;14.22;69.94;93313.78;4996001;28;20377;-94
2021/06/03 05:05:24;;;;;;;10.30;6.80;;;;;;;14.25;69.82;93310.56;4979316;28;20058;-93
2021/06/03 05:08:44;;;;;;;7.75;6.32;;;;;;;14.34;69.85;93317.53;4973938;28;20047;-94
2021/06/03 05:11:36;;;;;;;10.40;6.68;;;;;;;14.45;69.81;93314.72;4977937;28;20053;-93
2021/06/03 05:14:20;;;;;;;10.10;6.65;;;;;;;14.51;70.00;93316.19;4992625;28;20038;-94
2021/06/03 05:17:27;;;;;;;9.52;6.75;;;;;;;14.56;69.22;93306.38;4996192;28;20097;-93
2021/06/03 05:20:47;;;;;;;11.73;6.35;;;;;;;14.76;69.22;93322.91;4995927;28;20042;-96
2021/06/03 05:23:48;;;;;;;10.10;6.78;;;;;;;14.89;69.39;93314.22;5022040;28;20046;-94
2021/06/03 05:30:30;;;;;;;9.00;6.88;;;;;;;15.18;67.82;93326.34;5000446;28;20046;-93
2021/06/03 05:33:26;;;;;;;9.35;6.70;;;;;;;15.45;67.23;93338.75;5016586;28;20395;-94
2021/06/03 05:36:37;;;;;;;9.38;7.43;;;;;;;15.67;66.66;93324.81;5013154;28;20057;-94
2021/06/03 05:39:34;;;;;;;;;;;;;;;;;;;;;
2021/06/03 05:46:04;;;;;;;9.38;6.35;;;;;;;16.53;62.56;93316.00;4959065;28;20041;-93
2021/06/03 05:49:02;;;;;;;9.35;6.40;;;;;;;16.75;61.88;93325.78;5005537;28;20057;-94
2021/06/03 05:52:05;;;;;;;;;;;;;;;;;;;;;
2021/06/03 05:54:49;;;;;;;8.40;6.43;;;;;;;15.97;65.65;93314.69;4994613;28;20046;-94
2021/06/03 05:57:39;;;;;;;8.15;6.70;;;;;;;15.74;64.88;93316.53;4996931;28;20039;-92
2021/06/03 06:03:59;;;;;;;10.02;6.80;;;;;;;15.85;64.28;93317.06;4999101;28;20060;-93
2021/06/03 06:10:07;;;;;;;;;;;;;;;;;;;;;
2021/06/03 06:13:14;;;;;;;;;;;;;;;;;;;;;
2021/06/03 06:16:03;;;;;;;11.35;6.45;;;;;;;16.48;63.17;93331.97;4980859;28;20046;-93
2021/06/03 06:27:09;;;;;;;13.30;6.60;;;;;;;17.45;58.02;93348.00;4996484;28;20097;-93
2021/06/03 06:34:14;;;;;;;9.40;6.40;;;;;;;17.26;58.91;93342.94;4996822;28;20038;-90
2021/06/03 06:36:56;;;;;;;8.93;6.40;;;;;;;17.33;59.18;93350.44;4990814;28;20501;-91
2021/06/03 06:39:47;;;;;;;9.38;6.43;;;;;;;16.87;61.28;93338.44;4995875;28;20039;-91
2021/06/03 06:42:53;;;;;;;;;;;;;;;;;;;;;
2021/06/03 06:45:44;;;;;;;12.23;6.63;;;;;;;17.01;62.55;93348.94;4992912;28;20042;-91
2021/06/03 06:48:21;;;;;;;;;;;;;;;;;;;;;
2021/06/03 06:50:51;;;;;;;8.27;6.68;;;;;;;16.68;64.21;93351.84;4991439;28;20038;-90
2021/06/03 06:53:40;;;;;;;;;;;;;;;;;;;;;
2021/06/03 06:56:35;;;;;;;10.95;6.30;;;;;;;17.04;63.05;93367.63;4992386;28;20036;-91
2021/06/03 06:59:31;;;;;;;9.50;6.50;;;;;;;16.65;65.68;93355.88;5000267;28;20096;-92
2021/06/03 07:02:10;;;;;;;9.70;6.70;;;;;;;16.81;64.91;93358.94;5006267;28;20121;-90
2021/06/03 07:04:43;;;;;;;8.90;6.25;;;;;;;16.98;64.02;93357.47;5010811;28;20058;-91
2021/06/03 07:07:52;;;;;;;8.90;6.78;;;;;;;17.07;62.96;93360.94;5005037;28;20121;-91
2021/06/03 07:11:17;;;;;;;;;;;;;;;;;;;;;
2021/06/03 07:14:03;;;;;;;;;;;;;;;;;;;;;
2021/06/03 07:17:07;;;;;;;;;;;;;;;;;;;;;
2021/06/03 07:20:02;;;;;;;11.80;6.85;;;;;;;17.63;59.04;93351.47;4989767;28;20145;-91
2021/06/03 07:23:00;;;;;;;;;;;;;;;;;;;;;
2021/06/03 07:25:57;;;;;;;;;;;;;;;;;;;;;
2021/06/03 07:28:47;;;;;;;10.43;6.80;;;;;;;17.99;57.20;93360.25;4991509;28;20440;-92
2021/06/03 07:31:35;;;;;;;;;;;;;;;;;;;;;
2021/06/03 07:34:40;;;;;;;10.57;7.38;;;;;;;18.15;60.18;93356.06;4989177;28;20124;-92
2021/06/03 07:37:33;;;;;;;9.88;6.88;;;;;;;17.98;58.62;93367.44;4974404;28;20030;-93
2021/06/03 07:40:20;;;;;;;;;;;;;;;17.80;59.54;93376.41;5004586;28;20046;-91
2021/06/03 07:43:31;;;;;;;9.48;6.68;;;;;;;18.45;56.17;93364.94;5014027;28;20292;-94
2021/06/03 07:46:07;;;;;;;11.70;6.82;;;;;;;18.28;53.67;93355.13;4970523;28;20042;-94
2021/06/03 08:07:52;;;;;;;12.77;6.93;;;;;;;18.10;58.70;93380.06;4916825;29;20052;-94
2021/06/03 08:11:07;;;;;;;11.20;7.20;;;;;;;18.44;60.99;93371.34;4901588;29;20549;-93
2021/06/03 08:26:03;;;;;;;;;;;;;;;;;;;;;
2021/06/03 08:32:40;;;;;;;10.80;7.32;;;;;;;18.83;56.43;93374.91;4920768;29;20072;-93
2021/06/03 08:49:22;;;;;;;12.23;7.55;;;;;;;18.82;55.24;93381.28;5034667;28;20057;-93
2021/06/03 08:52:08;;;;;;;11.20;7.07;;;;;;;18.88;55.79;93381.91;5023540;28;20049;-93
2021/06/03 08:54:40;;;;;;;8.55;6.47;;;;;;;19.34;57.93;93373.19;5035856;28;20363;-93
2021/06/03 08:57:36;;;;;;;;;;;;;;;19.68;54.67;93397.22;4959810;28;20494;-93
2021/06/03 09:04:40;;;;;;;8.98;6.82;;;;;;;19.34;56.22;93377.69;4997214;28;20407;-93
2021/06/03 09:07:43;;;;;;;;;;;;;;;;;;;;;
2021/06/03 09:10:53;;;;;;;10.75;6.15;;;;;;;19.99;52.66;93378.31;5016503;28;20515;-93
2021/06/03 09:13:54;;;;;;;;;;;;;;;;;;;;;
2021/06/03 09:20:25;;;;;;;10.18;6.45;;;;;;;20.05;53.24;93374.38;5004787;28;20041;-93
2021/06/03 09:27:49;;;;;;;;;;;;;;;;;;;;;
2021/06/03 09:30:28;;;;;;;7.93;6.35;;;;;;;19.62;52.39;93369.31;4974783;28;20052;-93
2021/06/03 09:33:45;;;;;;;9.00;5.00;;;;;;;20.11;51.78;93365.13;4972041;28;20127;-94
2021/06/03 09:37:23;;;;;;;;;;;;;;;;;;;;;
2021/06/03 09:44:55;;;;;;;13.13;5.82;;;;;;;19.72;51.07;93388.34;5039099;28;20259;-93
2021/06/03 09:48:30;;;;;;;;;;;;;;;;;;;;;
2021/06/03 09:55:39;;;;;;;5.97;4.43;;;;;;;20.28;52.02;93372.16;4976332;28;20200;-95
2021/06/03 09:59:08;;;;;;;10.07;4.95;;;;;;;20.46;49.33;93366.72;4949335;28;20126;-94
2021/06/03 10:01:59;;;;;;;8.07;4.55;;;;;;;20.61;51.19;93389.31;4992489;28;20051;-94
2021/06/03 10:05:57;;;;;;;7.40;4.63;;;;;;;20.73;48.03;93373.38;4972052;28;20054;-95
2021/06/03 10:09:03;;;;;;;7.03;4.70;;;;;;;21.04;48.48;93374.81;4978493;28;20046;-93
2021/06/03 10:11:55;;;;;;;6.68;4.40;;;;;;;20.74;48.15;93377.63;5053875;28;20049;-94
2021/06/03 10:19:08;;;;;;;6.63;4.45;;;;;;;20.82;47.72;93394.59;4983756;28;20042;-94
2021/06/03 10:22:57;;;;;;;7.20;4.75;;;;;;;21.17;47.97;93379.06;4993075;28;20055;-94
2021/06/03 10:25:59;;;;;;;7.43;4.88;;;;;;;20.97;48.80;93386.75;4960675;28;20125;-94
2021/06/03 10:28:36;;;;;;;10.30;5.05;;;;;;;21.00;48.65;93375.44;4959358;28;20057;-95
2021/06/03 10:35:35;;;;;;;9.77;4.60;;;;;;;21.21;49.29;93393.25;4970790;28;20054;-94
2021/06/03 10:42:43;;;;;;;9.13;4.72;;;;;;;21.27;47.57;93383.16;4949638;28;20133;-95
2021/06/03 10:56:32;;;;;;;7.22;4.68;;;;;;;21.32;48.55;93364.28;5033387;28;20590;-95
2021/06/03 10:59:42;;;;;;;;;;;;;;;;;;;;;
2021/06/03 11:24:55;;;;;;;8.10;5.00;;;;;;;21.56;47.39;93384.88;5054160;28;20079;-94
2021/06/03 11:28:25;;;;;;;;;;;;;;;;;;;;;
2021/06/03 11:31:13;;;;;;;9.35;5.40;;;;;;;21.95;45.88;93364.78;5004044;28;20526;-95
2021/06/03 11:34:37;;;;;;;;;;;;;;;;;;;;;
2021/06/03 11:42:00;;;;;;;8.07;4.80;;;;;;;21.58;46.66;93382.66;5038916;28;20529;-95
2021/06/03 11:49:17;;;;;;;;;;;;;;;;;;;;;
2021/06/03 11:52:24;;;;;;;;;;;;;;;;;;;;;
2021/06/03 11:55:48;;;;;;;;;;;;;;;;;;;;;
2021/06/03 11:58:35;;;;;;;8.10;4.10;;;;;;;21.29;46.62;93364.97;5036851;28;20125;-96
2021/06/03 12:05:46;;;;;;;;;;;;;;;;;;;;;
2021/06/03 12:09:17;;;;;;;;;;;;;;;;;;;;;
2021/06/03 12:39:43;;;;;;;5.18;3.65;;;;;;;21.37;45.38;93318.81;5031464;28;20067;-96
2021/06/03 12:47:18;;;;;;;;;;;;;;;;;;;;;
2021/06/03 13:06:03;;;;;;;5.45;3.92;;;;;;;22.36;41.86;93298.91;4902391;29;20161;-95
2021/06/03 13:13:33;;;;;;;;;;;;;;;;;;;;;
2021/06/03 13:25:18;;;;;;;10.15;3.55;;;;;;;22.86;42.18;93288.75;4855059;29;20045;-96
2021/06/03 13:31:28;;;;;;;;;;;;;;;;;;;;;
2021/06/03 13:38:34;;;;;;;;;;;;;;;22.77;42.23;93291.59;4871509;29;20056;-96
2021/06/03 13:54:43;;;;;;;;;;;;;;;;;;;;;
2021/06/03 14:05:47;;;;;;;;;;;;;;;;;;;;;
2021/06/03 14:11:57;;;;;;;6.28;3.78;;;;;;;22.97;42.15;93287.13;4997213;28;20073;-94
2021/06/03 14:19:03;;;;;;;;;;;;;;;;;;;;;
2021/06/03 14:22:42;;;;;;;;;;;;;;;;;;;;;
2021/06/03 14:30:37;;;;;;;;;;;;;;;;;;;;;
2021/06/03 14:34:43;;;;;;;5.90;4.13;;;;;;;22.93;41.68;93267.56;4896393;29;20048;-95
2021/06/03 14:38:50;;;;;;;;;;;;;;;;;;;;;
2021/06/03 14:55:28;;;;;;;;;;;;;;;;;;;;;
2021/06/03 14:58:21;;;;;;;;;;;;;;;;;;;;;
2021/06/03 15:01:30;;;;;;;;;;;;;;;;;;;;;
2021/06/03 15:04:13;;;;;;;11.02;4.72;;;;;;;22.78;42.92;93271.00;4871178;29;20172;-93
2021/06/03 15:06:44;;;;;;;9.65;4.60;;;;;;;22.78;43.20;93263.78;4878138;29;20148;-92
2021/06/03 15:09:19;;;;;;;7.60;4.73;;;;;;;22.71;43.01;93252.91;4986346;28;20072;-93
2021/06/03 15:12:00;;;;;;;9.68;4.68;;;;;;;23.09;42.09;93259.59;4999158;28;20130;-94
2021/06/03 15:14:43;;;;;;;7.30;4.30;;;;;;;23.02;43.28;93260.19;4997152;28;20046;-94
2021/06/03 15:17:31;;;;;;;;;;;;;;;22.44;43.75;93273.19;5014042;28;20049;-92
2021/06/03 15:20:42;;;;;;;6.40;3.88;;;;;;;22.75;43.15;93245.78;4998716;28;20385;-94
2021/06/03 15:23:22;;;;;;;8.18;4.65;;;;;;;22.73;42.83;93260.59;4981366;28;20050;-95
2021/06/03 15:26:06;;;;;;;;;;;;;;;;;;;;;
2021/06/03 15:29:16;;;;;;;6.72;3.70;;;;;;;23.83;42.53;93258.97;5014464;28;20400;-94
2021/06/03 15:32:33;;;;;;;6.55;3.67;;;;;;;23.93;41.60;93238.91;4990621;28;20038;-95
2021/06/03 15:35:45;;;;;;;5.13;3.65;;;;;;;24.39;41.44;93252.44;4998524;28;20053;-94
2021/06/03 15:38:19;;;;;;;6.55;3.40;;;;;;;24.22;40.87;93245.59;5027603;28;20545;-94
2021/06/03 15:41:00;;;;;;;12.27;3.60;;;;;;;23.74;40.95;93245.78;4996807;28;20064;-94
2021/06/03 15:46:30;;;;;;;7.35;4.38;;;;;;;23.93;42.96;93247.72;5010556;28;20056;-94
2021/06/03 15:49:19;;;;;;;;;;;;;;;;;;;;;
2021/06/03 15:52:10;;;;;;;5.78;3.60;;;;;;;24.75;40.40;93237.03;5014052;28;20134;-94
2021/06/03 15:54:57;;;;;;;6.95;3.90;;;;;;;24.09;39.92;93256.47;4983285;28;20156;-95
2021/06/03 15:57:57;;;;;;;;;;;;;;;;;;;;;
2021/06/03 16:00:54;;;;;;;9.45;3.80;;;;;;;23.17;42.59;93258.66;4985237;28;20050;-94
2021/06/03 16:04:32;;;;;;;9.93;4.00;;;;;;;23.12;43.25;93274.16;4988540;28;20047;-93
2021/06/03 16:07:20;;;;;;;8.48;4.18;;;;;;;23.15;42.97;93262.78;4990569;28;20051;-93
2021/06/03 16:10:23;;;;;;;7.23;3.77;;;;;;;22.89;44.99;93258.69;4970131;28;20056;-93
2021/06/03 16:13:17;;;;;;;6.50;3.97;;;;;;;22.95;43.27;93244.00;4974203;28;20279;-93
2021/06/03 16:16:01;;;;;;;;;;;;;;;;;;;;;
2021/06/03 16:18:42;;;;;;;9.68;3.85;;;;;;;23.35;43.21;93250.25;4973547;28;20528;-94
2021/06/03 16:21:43;;;;;;;;;;;;;;;;;;;;;
2021/06/03 16:24:30;;;;;;;7.05;4.00;;;;;;;22.88;44.97;93249.16;4974411;28;20047;-93
2021/06/03 16:27:20;;;;;;;7.78;3.95;;;;;;;22.95;43.69;93254.66;4980435;28;20046;-94
2021/06/03 16:30:23;;;;;;;6.32;3.90;;;;;;;23.29;42.85;93249.75;4975668;28;20132;-94
2021/06/03 16:33:23;;;;;;;7.68;4.03;;;;;;;22.91;43.40;93248.47;4990386;28;20322;-94
2021/06/03 16:35:52;;;;;;;4.95;3.55;;;;;;;23.36;43.12;93267.84;4990435;28;20081;-92
2021/06/03 16:38:33;;;;;;;7.53;3.67;;;;;;;23.72;42.79;93248.03;4959281;28;20041;-95
2021/06/03 16:41:18;;;;;;;;;;;;;;;;;;;;;
2021/06/03 16:44:28;;;;;;;7.68;3.75;;;;;;;23.60;42.01;93254.25;5005358;28;20109;-95
2021/06/03 16:47:21;;;;;;;8.48;4.13;;;;;;;23.57;42.49;93256.84;5009928;28;20104;-93
2021/06/03 16:50:20;;;;;;;8.32;3.97;;;;;;;23.42;42.86;93261.13;5012341;28;20040;-95
2021/06/03 16:53:14;;;;;;;8.38;4.05;;;;;;;23.22;42.41;93257.63;5011718;28;20042;-95
2021/06/03 16:55:53;;;;;;;6.22;3.75;;;;;;;22.96;43.44;93247.41;4999389;28;20053;-94
2021/06/03 16:58:45;;;;;;;6.70;3.47;;;;;;;22.83;43.56;93246.72;5011745;28;20054;-93
2021/06/03 17:05:01;;;;;;;8.93;3.47;;;;;;;22.51;43.50;93257.38;5001750;28;20156;-93
2021/06/03 17:07:50;;;;;;;;;;;;;;;;;;;;;
2021/06/03 17:10:22;;;;;;;8.18;3.75;;;;;;;22.20;44.66;93256.16;5001483;28;20046;-95
2021/06/03 17:13:13;;;;;;;5.60;3.67;;;;;;;22.19;44.25;93267.94;5033395;28;20701;-95
2021/06/03 17:16:07;;;;;;;;;;;;;;;;;;;;;
2021/06/03 17:18:38;;;;;;;8.75;3.53;;;;;;;21.92;45.23;93258.81;5033495;28;20507;-95
2021/06/03 17:21:27;;;;;;;5.70;3.70;;;;;;;21.79;45.92;93263.41;5015881;28;20161;-94
2021/06/03 17:24:15;;;;;;;;;;;;;;;;;;;;;
2021/06/03 17:26:50;;;;;;;7.43;3.75;;;;;;;21.62;45.34;93279.66;5017122;28;20096;-95
2021/06/03 17:29:47;;;;;;;6.72;3.42;;;;;;;21.50;46.26;93279.66;4999114;28;20046;-94
2021/06/03 17:32:32;;;;;;;6.07;3.47;;;;;;;21.38;45.53;93283.84;4978195;28;20145;-95
2021/06/03 17:35:10;;;;;;;;;;;;;;;21.39;45.58;93292.63;5032215;28;20128;-94
2021/06/03 17:37:47;;;;;;;;;;;;;;;;;;;;;
2021/06/03 17:40:32;;;;;;;6.55;4.45;;;;;;;21.19;46.02;93304.97;5003924;28;20206;-93
2021/06/03 17:43:10;;;;;;;9.27;4.28;;;;;;;20.97;45.34;93284.88;4999592;28;20165;-93
2021/06/03 17:46:15;;;;;;;10.85;6.68;;;;;;;20.86;45.87;93287.16;5012507;28;20379;-94
2021/06/03 17:49:52;;;;;;;;;;;;;;;;;;;;;
2021/06/03 17:53:48;;;;;;;;;;;;;;;;;;;;;
2021/06/03 18:05:25;;;;;;;;;;;;;;;;;;;;;
2021/06/03 18:09:23;;;;;;;;;;;;;;;;;;;;;
2021/06/03 18:12:43;;;;;;;;;;;;;;;;;;;;;
2021/06/03 18:15:48;;;;;;;;;;;;;;;;;;;;;
2021/06/03 18:42:15;;;;;;;;;;;;;;;;;;;;;
2021/06/03 18:45:28;;;;;;;;;;;;;;;;;;;;;
2021/06/03 18:48:50;;;;;;;;;;;;;;;;;;;;;
2021/06/03 19:00:09;;;;;;;;;;;;;;;;;;;;;
2021/06/03 19:03:00;;;;;;;7.38;3.47;;;;;;;18.50;52.86;93298.50;4878988;29;20090;-92
2021/06/03 19:06:19;;;;;;;;;;;;;;;;;;;;;
2021/06/03 19:17:01;;;;;;;;;;;;;;;;;;;;;
2021/06/03 19:20:36;;;;;;;11.07;3.80;;;;;;;18.04;55.31;93307.91;4913512;29;20119;-93
2021/06/03 19:27:14;;;;;;;7.80;3.60;;;;;;;17.78;56.18;93309.75;4916967;29;20154;-92
2021/06/03 19:33:36;;;;;;;10.98;3.65;;;;;;;17.64;56.78;93321.25;4971260;28;20082;-91
2021/06/03 19:36:07;;;;;;;5.75;3.55;;;;;;;17.59;56.91;93332.00;4991509;28;20046;-91
2021/06/03 19:38:59;;;;;;;;;;;;;;;;;;;;;
2021/06/03 19:41:54;;;;;;;8.20;3.60;;;;;;;17.45;57.27;93334.75;4972460;28;20133;-92
2021/06/03 19:45:06;;;;;;;;;;;;;;;;;;;;;
2021/06/03 19:47:51;;;;;;;6.80;3.83;;;;;;;17.47;57.88;93350.31;4983990;28;20053;-93
2021/06/03 19:51:31;;;;;;;6.68;3.17;;;;;;;17.28;57.94;93332.06;4997431;28;20125;-92
2021/06/03 19:54:48;;;;;;;;;;;;;;;;;;;;;
2021/06/03 19:57:35;;;;;;;;;;;;;;;;;;;;;
2021/06/03 20:00:36;;;;;;;;;;;;;;;;;;;;;
2021/06/03 20:03:37;;;;;;;6.20;3.63;;;;;;;17.10;58.94;93348.97;4997048;28;20436;-92
2021/06/03 20:06:41;;;;;;;6.95;3.05;;;;;;;17.02;59.22;93353.13;4968370;28;20046;-93
2021/06/03 20:09:57;;;;;;;5.53;3.58;;;;;;;16.95;59.13;93339.56;4996153;28;20054;-92
2021/06/03 20:12:56;;;;;;;6.97;3.50;;;;;;;16.91;59.03;93354.47;4996309;28;20045;-94
2021/06/03 20:15:35;;;;;;;6.05;3.45;;;;;;;16.96;59.55;93364.94;4997568;28;20488;-92
2021/06/03 20:18:12;;;;;;;5.97;3.50;;;;;;;16.81;59.56;93343.06;4981889;28;20052;-91
2021/06/03 20:21:04;;;;;;;7.47;3.80;;;;;;;16.76;59.86;93351.13;4990788;28;20108;-92
2021/06/03 20:24:02;;;;;;;5.88;3.70;;;;;;;16.73;59.95;93350.91;5000428;28;20044;-93
2021/06/03 20:26:43;;;;;;;7.07;3.55;;;;;;;16.70;60.09;93347.03;5016533;28;20137;-92
2021/06/03 20:29:28;;;;;;;6.05;3.70;;;;;;;16.67;60.01;93355.56;5001816;28;20036;-93
2021/06/03 20:35:35;;;;;;;6.32;4.05;;;;;;;16.58;60.46;93360.03;4988866;28;20073;-94
2021/06/03 20:38:42;;;;;;;;;;;;;;;;;;;;;
2021/06/03 20:41:54;;;;;;;7.28;3.60;;;;;;;16.56;60.38;93362.19;5030336;28;20041;-94
2021/06/03 20:44:48;;;;;;;;;;;;;;;;;;;;;
2021/06/03 20:51:12;;;;;;;9.90;3.67;;;;;;;16.36;60.93;93360.81;5002089;28;20129;-93
2021/06/03 20:54:24;;;;;;;;;;;;;;;;;;;;;
2021/06/03 20:57:20;;;;;;;6.65;3.85;;;;;;;16.33;61.03;93370.13;5023987;28;20069;-93
2021/06/03 21:00:38;;;;;;;8.32;3.70;;;;;;;16.23;61.84;93371.16;5001535;28;20064;-93
2021/06/03 21:03:20;;;;;;;;;;;;;;;;;;;;;
2021/06/03 21:06:10;;;;;;;7.22;4.00;;;;;;;16.13;61.93;93370.59;5004166;28;20057;-93
2021/06/03 21:09:40;;;;;;;;;;;;;;;;;;;;;
2021/06/03 21:12:32;;;;;;;8.07;3.97;;;;;;;16.19;62.10;93391.31;5015879;28;19917;-93
2021/06/03 21:18:19;;;;;;;5.60;4.00;;;;;;;16.06;62.26;93364.94;4989582;28;20041;-92
2021/06/03 21:21:26;;;;;;;;;;;;;;;;;;;;;
2021/06/03 21:24:27;;;;;;;5.95;4.15;;;;;;;16.13;62.64;93386.44;5015299;28;20412;-93
2021/06/03 21:27:37;;;;;;;;;;;;;;;;;;;;;
2021/06/03 21:30:34;;;;;;;6.72;4.28;;;;;;;15.95;63.02;93370.44;5015794;28;20044;-93
2021/06/03 21:33:31;;;;;;;7.13;4.18;;;;;;;15.94;63.31;93363.59;4997484;28;20046;-93
2021/06/03 21:36:10;;;;;;;8.30;4.45;;;;;;;15.93;63.27;93362.03;4998886;28;20568;-94
2021/06/03 21:38:58;;;;;;;7.50;4.20;;;;;;;16.01;63.31;93382.47;4985060;28;20062;-93
2021/06/03 21:42:16;;;;;;;5.75;3.63;;;;;;;15.94;63.29;93384.72;4972401;28;20064;-93
2021/06/03 21:45:16;;;;;;;7.20;3.90;;;;;;;15.96;63.30;93385.22;5016498;28;20034;-93
2021/06/03 21:47:59;;;;;;;7.15;4.13;;;;;;;15.87;63.73;93380.91;5000134;28;20076;-93
2021/06/03 21:50:43;;;;;;;6.50;4.43;;;;;;;15.80;63.98;93368.88;5005659;28;20057;-93
2021/06/03 21:53:25;;;;;;;6.45;4.18;;;;;;;15.74;64.22;93364.81;5001456;28;20495;-94
2021/06/03 21:56:26;;;;;;;8.15;4.20;;;;;;;15.77;64.39;93379.28;5014974;28;20495;-94
2021/06/03 21:59:19;;;;;;;5.93;4.28;;;;;;;15.68;64.53;93370.47;4998198;28;20050;-92
2021/06/03 22:02:19;;;;;;;7.28;4.53;;;;;;;15.66;65.03;93375.25;4957438;28;20038;-93